Terminal Aerodrome Forecast
Issued by NWS

Home | Current Version | Previous Version | Text Only | Print | Product List | Glossary On
Versions: 1 2 3 4 5 6 7 8 9 10 11 12 13 14 15 16 17 18 19 20 21
242
FTUS41 KBTV 211726
TAFSLK
TAF
KSLK 211726Z 2118/2218 25006KT 1SM BR OVC002
     FM221500 08004KT 3SM BR OVC020=

USA.gov is the U.S. government's official web portal to all federal, state and local government web resources and services.